Time;durP1;ratioP1;P1;durP2;ratioP2;P2;SDS_P1;SDS_P2;PMS_P1;PMS_P2;Temp;Humidity;BMP_temperature;BMP_pressure;BME280_temperature;BME280_humidity;BME280_pressure;Samples;Min_cycle;Max_cycle;Signal;HPM_P1;HPM_P2
2024/04/04 00:00:39;;;;;;;;;;;11.90;99.90;;;;;;2091186;28;19912;-72
2024/04/04 00:01:39;;;;;;;;;;;11.90;99.90;;;;;;2096803;28;20011;-73
2024/04/04 00:02:40;;;;;;;;;;;11.90;99.90;;;;;;2100394;28;19916;-73
2024/04/04 00:03:40;;;;;;;;;;;11.90;99.90;;;;;;2100037;28;19924;-73
2024/04/04 00:04:41;;;;;;;;;;;11.90;99.90;;;;;;2100098;28;19912;-73
2024/04/04 00:05:41;;;;;;;;;;;11.90;99.90;;;;;;2095885;28;19939;-73
2024/04/04 00:06:43;;;;;;;;;;;11.90;99.90;;;;;;2099153;28;19916;-75
2024/04/04 00:07:43;;;;;;;;;;;11.90;99.90;;;;;;2097362;28;20378;-73
2024/04/04 00:08:44;;;;;;;;;;;11.90;99.90;;;;;;2096280;28;20065;-73
2024/04/04 00:09:44;;;;;;;;;;;11.90;99.90;;;;;;2095029;28;19913;-73
2024/04/04 00:10:45;;;;;;;;;;;11.90;99.90;;;;;;2096146;28;19924;-75
2024/04/04 00:11:45;;;;;;;;;;;11.90;99.90;;;;;;2090307;28;20301;-73
2024/04/04 00:12:46;;;;;;;;;;;11.90;99.90;;;;;;2087798;28;20345;-74
2024/04/04 00:13:46;;;;;;;;;;;11.90;99.90;;;;;;2096125;28;19916;-73
2024/04/04 00:14:47;;;;;;;;;;;11.90;99.90;;;;;;2100232;28;19916;-73
2024/04/04 00:15:47;;;;;;;;;;;11.90;99.90;;;;;;2100070;28;19913;-73
2024/04/04 00:16:48;;;;;;;;;;;11.90;99.90;;;;;;2096095;28;19959;-73
2024/04/04 00:17:48;;;;;;;;;;;11.90;99.90;;;;;;2099248;28;19968;-73
2024/04/04 00:18:49;;;;;;;;;;;11.90;99.90;;;;;;2097382;28;19916;-73
2024/04/04 00:19:49;;;;;;;;;;;11.90;99.90;;;;;;2095984;28;19917;-73
2024/04/04 00:20:50;;;;;;;;;;;11.90;99.90;;;;;;2096399;28;20802;-75
2024/04/04 00:21:50;;;;;;;;;;;11.90;99.90;;;;;;2096716;28;20421;-74
2024/04/04 00:22:51;;;;;;;;;;;11.90;99.90;;;;;;2095895;28;19917;-73
2024/04/04 00:23:51;;;;;;;;;;;11.90;99.90;;;;;;2097773;28;19919;-73
2024/04/04 00:24:52;;;;;;;;;;;11.80;99.90;;;;;;2098268;28;20396;-73
2024/04/04 00:25:52;;;;;;;;;;;11.80;99.90;;;;;;2099081;28;19916;-73
2024/04/04 00:26:53;;;;;;;;;;;11.80;99.90;;;;;;2097326;28;20084;-72
2024/04/04 00:27:53;;;;;;;;;;;11.80;99.90;;;;;;2097875;28;19923;-73
2024/04/04 00:28:54;;;;;;;;;;;11.80;99.90;;;;;;2091333;28;19912;-73
2024/04/04 00:29:54;;;;;;;;;;;11.80;99.90;;;;;;2092069;28;19928;-73
2024/04/04 00:30:55;;;;;;;;;;;11.80;99.90;;;;;;2098254;28;20011;-73
2024/04/04 00:31:55;;;;;;;;;;;11.80;99.90;;;;;;2096451;28;20275;-74
2024/04/04 00:32:56;;;;;;;;;;;11.80;99.90;;;;;;2099140;28;19966;-72
2024/04/04 00:33:58;;;;;;;;;;;11.80;99.90;;;;;;2098934;28;20224;-73
2024/04/04 00:34:58;;;;;;;;;;;11.80;99.90;;;;;;2099401;28;19914;-73
2024/04/04 00:35:59;;;;;;;;;;;11.80;99.90;;;;;;2096612;28;20306;-73
2024/04/04 00:37:01;;;;;;;;;;;11.80;99.90;;;;;;2096619;28;20041;-73
2024/04/04 00:38:02;;;;;;;;;;;11.80;99.90;;;;;;2099045;28;19912;-72
2024/04/04 00:39:04;;;;;;;;;;;11.80;99.90;;;;;;2101199;28;20235;-72
2024/04/04 00:40:05;;;;;;;;;;;11.80;99.90;;;;;;2098521;28;23054;-72
2024/04/04 00:41:05;;;;;;;;;;;11.80;99.90;;;;;;2096713;28;19916;-72
2024/04/04 00:42:06;;;;;;;;;;;11.80;99.90;;;;;;2098547;28;19926;-73
2024/04/04 00:43:06;;;;;;;;;;;11.80;99.90;;;;;;2096562;28;19912;-72
2024/04/04 00:44:07;;;;;;;;;;;11.80;99.90;;;;;;2098604;28;19988;-73
2024/04/04 00:45:08;;;;;;;;;;;11.80;99.90;;;;;;2098405;28;20117;-73
2024/04/04 00:46:08;;;;;;;;;;;11.80;99.90;;;;;;2099064;28;19916;-73
2024/04/04 00:47:09;;;;;;;;;;;11.80;99.90;;;;;;2096554;28;20408;-74
2024/04/04 00:48:09;;;;;;;;;;;11.80;99.90;;;;;;2099254;28;20419;-74
2024/04/04 00:49:10;;;;;;;;;;;11.80;99.90;;;;;;2101270;28;19924;-74
2024/04/04 00:50:11;;;;;;;;;;;11.80;99.90;;;;;;2091134;28;20677;-74
2024/04/04 00:51:12;;;;;;;;;;;11.70;99.90;;;;;;2079959;28;20375;-73
2024/04/04 00:52:13;;;;;;;;;;;11.70;99.90;;;;;;2087206;28;19968;-74
2024/04/04 00:53:13;;;;;;;;;;;11.70;99.90;;;;;;2098389;28;19947;-74
2024/04/04 00:54:14;;;;;;;;;;;11.70;99.90;;;;;;2097394;28;19923;-74
2024/04/04 00:55:15;;;;;;;;;;;11.70;99.90;;;;;;2097594;28;19922;-74
2024/04/04 00:56:16;;;;;;;;;;;11.70;99.90;;;;;;2090987;28;20329;-73
2024/04/04 00:57:16;;;;;;;;;;;11.60;99.90;;;;;;2091130;28;19924;-74
2024/04/04 00:58:17;;;;;;;;;;;11.60;99.90;;;;;;2098126;28;20344;-74
2024/04/04 00:59:17;;;;;;;;;;;11.60;99.90;;;;;;2087040;28;19917;-74
2024/04/04 01:00:18;;;;;;;;;;;11.60;99.90;;;;;;2086130;28;19959;-74
2024/04/04 01:01:19;;;;;;;;;;;11.60;99.90;;;;;;2094859;28;19916;-73
2024/04/04 01:02:21;;;;;;;;;;;11.60;99.90;;;;;;2101917;28;19916;-69
2024/04/04 01:03:21;;;;;;;;;;;11.70;99.90;;;;;;2097847;28;20002;-73
2024/04/04 01:04:21;;;;;;;;;;;11.70;99.90;;;;;;2088401;28;20306;-73
2024/04/04 01:05:22;;;;;;;;;;;11.70;99.90;;;;;;2092341;28;19917;-74
2024/04/04 01:06:29;;;;;;;;;;;11.60;99.90;;;;;;2089754;28;19950;-74
2024/04/04 01:07:30;;;;;;;;;;;11.60;99.90;;;;;;2097709;28;19919;-74
2024/04/04 01:08:31;;;;;;;;;;;11.60;99.90;;;;;;2097745;28;19914;-74
2024/04/04 01:09:32;;;;;;;;;;;11.60;99.90;;;;;;2091525;28;19912;-74
2024/04/04 01:10:32;;;;;;;;;;;11.60;99.90;;;;;;2089558;28;19913;-73
2024/04/04 01:11:33;;;;;;;;;;;11.70;99.90;;;;;;2097383;28;19920;-73
2024/04/04 01:12:33;;;;;;;;;;;11.80;99.90;;;;;;2100389;28;19916;-74
2024/04/04 01:13:34;;;;;;;;;;;11.70;99.90;;;;;;2098883;28;20074;-74
2024/04/04 01:14:34;;;;;;;;;;;11.80;99.90;;;;;;2097816;28;19916;-74
2024/04/04 01:15:35;;;;;;;;;;;11.80;99.90;;;;;;2100018;28;20386;-74
2024/04/04 01:16:35;;;;;;;;;;;11.80;99.90;;;;;;2098952;28;20287;-74
2024/04/04 01:17:36;;;;;;;;;;;11.80;99.90;;;;;;2097589;28;19966;-73
2024/04/04 01:18:36;;;;;;;;;;;11.80;99.90;;;;;;2099852;28;20343;-72
2024/04/04 01:19:37;;;;;;;;;;;11.80;99.90;;;;;;2099425;28;19919;-73
2024/04/04 01:20:37;;;;;;;;;;;11.80;99.90;;;;;;2101375;28;19912;-73
2024/04/04 01:21:38;;;;;;;;;;;11.80;99.90;;;;;;2099479;28;20282;-73
2024/04/04 01:22:38;;;;;;;;;;;11.80;99.90;;;;;;2099466;28;19916;-73
2024/04/04 01:23:42;;;;;;;;;;;11.80;99.90;;;;;;2088740;28;19923;-73
2024/04/04 01:24:42;;;;;;;;;;;11.80;99.90;;;;;;2088609;28;19909;-73
2024/04/04 01:25:43;;;;;;;;;;;11.80;99.90;;;;;;2099129;28;19912;-74
2024/04/04 01:26:43;;;;;;;;;;;11.80;99.90;;;;;;2090595;28;20523;-73
2024/04/04 01:27:48;;;;;;;;;;;11.80;99.90;;;;;;2088136;28;19917;-74
2024/04/04 01:28:48;;;;;;;;;;;11.80;99.90;;;;;;2104776;28;20635;-74
2024/04/04 01:29:49;;;;;;;;;;;11.80;99.90;;;;;;2101025;28;19916;-74
2024/04/04 01:30:49;;;;;;;;;;;11.80;99.90;;;;;;2097143;28;19939;-73
2024/04/04 01:31:50;;;;;;;;;;;11.80;99.90;;;;;;2093032;28;19916;-74
2024/04/04 01:32:50;;;;;;;;;;;11.80;99.90;;;;;;2101004;28;19939;-74
2024/04/04 01:33:51;;;;;;;;;;;11.80;99.90;;;;;;2097625;28;19919;-74
2024/04/04 01:34:51;;;;;;;;;;;11.80;99.90;;;;;;2098141;28;19926;-74
2024/04/04 01:35:51;;;;;;;;;;;11.80;99.90;;;;;;2101082;28;19916;-74
2024/04/04 01:36:52;;;;;;;;;;;11.90;99.90;;;;;;2097650;28;19919;-73
2024/04/04 01:37:53;;;;;;;;;;;11.90;99.90;;;;;;2098146;28;20471;-74
2024/04/04 01:38:54;;;;;;;;;;;11.90;99.90;;;;;;2101471;28;19923;-74
2024/04/04 01:39:54;;;;;;;;;;;11.90;99.90;;;;;;2097634;28;20347;-76
2024/04/04 01:40:55;;;;;;;;;;;11.90;99.90;;;;;;2097150;28;19916;-78
2024/04/04 01:41:55;;;;;;;;;;;11.90;99.90;;;;;;2092233;28;19939;-73
2024/04/04 01:42:56;;;;;;;;;;;11.90;99.90;;;;;;2089471;28;19924;-76
2024/04/04 01:43:56;;;;;;;;;;;11.90;99.90;;;;;;2083322;28;19956;-71
2024/04/04 01:44:57;;;;;;;;;;;11.90;99.90;;;;;;2088092;28;20402;-72
2024/04/04 01:45:57;;;;;;;;;;;11.90;99.90;;;;;;2098116;28;19912;-71
2024/04/04 01:46:58;;;;;;;;;;;12.00;99.90;;;;;;2100245;28;19919;-71
2024/04/04 01:47:58;;;;;;;;;;;12.00;99.90;;;;;;2092173;28;20363;-69
2024/04/04 01:48:59;;;;;;;;;;;12.00;99.90;;;;;;2089065;28;19917;-69
2024/04/04 01:49:59;;;;;;;;;;;12.00;99.90;;;;;;2100578;28;19970;-69
2024/04/04 01:50:59;;;;;;;;;;;12.00;99.90;;;;;;2096847;28;19912;-70
2024/04/04 01:52:00;;;;;;;;;;;12.00;99.90;;;;;;2094401;28;20308;-70
2024/04/04 01:53:00;;;;;;;;;;;12.00;99.90;;;;;;2096997;28;20408;-71
2024/04/04 01:54:02;;;;;;;;;;;12.00;99.90;;;;;;2083907;28;19986;-70
2024/04/04 01:55:02;;;;;;;;;;;11.90;99.90;;;;;;2084036;28;20056;-70
2024/04/04 01:56:03;;;;;;;;;;;12.00;99.90;;;;;;2097153;28;19920;-70
2024/04/04 01:57:06;;;;;;;;;;;12.00;99.90;;;;;;2101096;28;19923;-69
2024/04/04 01:58:06;;;;;;;;;;;12.00;99.90;;;;;;2097312;28;19976;-69
2024/04/04 01:59:07;;;;;;;;;;;12.00;99.90;;;;;;2097163;28;19916;-70
2024/04/04 02:00:08;;;;;;;;;;;12.00;99.90;;;;;;2101111;28;19919;-70
2024/04/04 02:01:12;;;;;;;;;;;11.90;99.90;;;;;;2100878;28;20011;-70
2024/04/04 02:02:12;;;;;;;;;;;11.90;99.90;;;;;;2100874;28;19919;-69
2024/04/04 02:03:13;;;;;;;;;;;11.90;99.90;;;;;;2088102;28;19920;-70
2024/04/04 02:04:13;;;;;;;;;;;11.80;99.90;;;;;;2088745;28;20390;-70
2024/04/04 02:05:14;;;;;;;;;;;11.80;99.90;;;;;;2100350;28;19924;-70
2024/04/04 02:06:14;;;;;;;;;;;11.80;99.90;;;;;;2097651;28;19923;-70
2024/04/04 02:07:15;;;;;;;;;;;11.80;99.90;;;;;;2096335;28;19920;-69
2024/04/04 02:08:15;;;;;;;;;;;11.80;99.90;;;;;;2096310;28;20007;-69
2024/04/04 02:09:16;;;;;;;;;;;11.80;99.90;;;;;;2097984;28;19959;-69
2024/04/04 02:10:16;;;;;;;;;;;11.80;99.90;;;;;;2097121;28;19924;-71
2024/04/04 02:11:17;;;;;;;;;;;11.80;99.90;;;;;;2100772;28;19928;-70
2024/04/04 02:12:17;;;;;;;;;;;11.80;99.90;;;;;;2100874;28;19939;-70
2024/04/04 02:13:18;;;;;;;;;;;11.80;99.90;;;;;;2101370;28;19912;-69
2024/04/04 02:14:18;;;;;;;;;;;11.80;99.90;;;;;;2100994;28;19937;-69
2024/04/04 02:15:19;;;;;;;;;;;11.80;99.90;;;;;;2101266;28;19919;-69
2024/04/04 02:16:23;;;;;;;;;;;11.80;99.90;;;;;;2099020;28;20322;-69
2024/04/04 02:17:23;;;;;;;;;;;11.80;99.90;;;;;;2087643;28;19917;-70
2024/04/04 02:18:24;;;;;;;;;;;11.80;99.90;;;;;;2085926;28;20318;-69
2024/04/04 02:19:25;;;;;;;;;;;11.80;99.90;;;;;;2097021;28;19916;-69
2024/04/04 02:20:26;;;;;;;;;;;11.80;99.90;;;;;;2097093;28;19923;-70
2024/04/04 02:21:26;;;;;;;;;;;11.80;99.90;;;;;;2098177;28;19969;-70
2024/04/04 02:22:26;;;;;;;;;;;11.80;99.90;;;;;;2098466;28;20206;-70
2024/04/04 02:23:28;;;;;;;;;;;11.70;99.90;;;;;;2097226;28;20282;-71
2024/04/04 02:24:28;;;;;;;;;;;11.70;99.90;;;;;;2094907;28;20333;-70
2024/04/04 02:25:29;;;;;;;;;;;11.70;99.90;;;;;;2098654;28;19913;-71
2024/04/04 02:26:29;;;;;;;;;;;11.70;99.90;;;;;;2095484;28;19951;-70
2024/04/04 02:27:31;;;;;;;;;;;11.80;99.90;;;;;;2096728;28;19920;-70
2024/04/04 02:28:31;;;;;;;;;;;11.80;99.90;;;;;;2095528;28;19912;-69
2024/04/04 02:30:09;;;;;;;;;;;11.80;99.90;;;;;;2099975;27;19980;-70
2024/04/04 02:31:13;;;;;;;;;;;11.80;99.90;;;;;;2096258;28;19951;-70
2024/04/04 02:32:13;;;;;;;;;;;11.80;99.90;;;;;;2106997;28;20374;-70
2024/04/04 02:33:14;;;;;;;;;;;11.80;99.90;;;;;;2107865;28;19955;-70
2024/04/04 02:34:14;;;;;;;;;;;11.80;99.90;;;;;;2099615;28;19915;-70
2024/04/04 02:35:15;;;;;;;;;;;11.70;99.90;;;;;;2107550;28;19923;-70
2024/04/04 02:36:16;;;;;;;;;;;11.70;99.90;;;;;;2098465;28;19962;-70
2024/04/04 02:37:16;;;;;;;;;;;11.70;99.90;;;;;;2098869;28;19916;-69
2024/04/04 02:38:17;;;;;;;;;;;11.70;99.90;;;;;;2106687;28;19916;-69
2024/04/04 02:39:17;;;;;;;;;;;11.70;99.90;;;;;;2107220;28;19923;-70
2024/04/04 02:40:18;;;;;;;;;;;11.70;99.90;;;;;;2099115;28;20429;-68
2024/04/04 02:41:18;;;;;;;;;;;11.80;99.90;;;;;;2098089;28;20011;-68
2024/04/04 02:42:19;;;;;;;;;;;11.80;99.90;;;;;;2107970;28;19933;-68
2024/04/04 02:43:20;;;;;;;;;;;11.80;99.90;;;;;;2107049;28;19924;-68
2024/04/04 02:44:20;;;;;;;;;;;11.80;99.90;;;;;;2107796;28;20460;-70
2024/04/04 02:45:22;;;;;;;;;;;11.80;99.90;;;;;;2106309;28;19916;-68
2024/04/04 02:46:22;;;;;;;;;;;11.80;99.90;;;;;;2101494;28;19908;-68
2024/04/04 02:47:23;;;;;;;;;;;11.80;99.90;;;;;;2097520;28;19913;-68
2024/04/04 02:48:23;;;;;;;;;;;11.80;99.90;;;;;;2090589;28;19952;-68
2024/04/04 02:49:24;;;;;;;;;;;11.80;99.90;;;;;;2106641;28;20135;-67
2024/04/04 02:50:26;;;;;;;;;;;11.80;99.90;;;;;;2107165;28;20457;-68
2024/04/04 02:51:27;;;;;;;;;;;11.80;99.90;;;;;;2104766;28;19916;-68
2024/04/04 02:52:28;;;;;;;;;;;11.80;99.90;;;;;;2099935;28;19912;-68
2024/04/04 02:53:28;;;;;;;;;;;11.80;99.90;;;;;;2100484;28;19957;-67
2024/04/04 02:54:29;;;;;;;;;;;11.80;99.90;;;;;;2103823;28;19918;-68
2024/04/04 02:55:31;;;;;;;;;;;11.80;99.90;;;;;;2104013;28;20493;-67
2024/04/04 02:56:32;;;;;;;;;;;11.80;99.90;;;;;;2105459;28;20179;-67
2024/04/04 02:57:32;;;;;;;;;;;11.80;99.90;;;;;;2104345;28;20008;-67
2024/04/04 02:58:32;;;;;;;;;;;11.80;99.90;;;;;;2093471;28;20345;-67
2024/04/04 02:59:33;;;;;;;;;;;11.80;99.90;;;;;;2099571;28;19917;-68
2024/04/04 03:00:34;;;;;;;;;;;11.80;99.90;;;;;;2103187;28;19997;-67
2024/04/04 03:01:34;;;;;;;;;;;11.80;99.90;;;;;;2102677;28;19973;-68
2024/04/04 03:02:35;;;;;;;;;;;11.80;99.90;;;;;;2094593;28;19928;-67
2024/04/04 03:03:35;;;;;;;;;;;11.80;99.90;;;;;;2102579;28;19916;-68
2024/04/04 03:04:36;;;;;;;;;;;11.80;99.90;;;;;;2103164;28;19912;-68
2024/04/04 03:05:40;;;;;;;;;;;11.80;99.90;;;;;;2094561;28;20409;-68
2024/04/04 03:06:41;;;;;;;;;;;11.80;99.90;;;;;;2107102;28;19994;-68
2024/04/04 03:07:42;;;;;;;;;;;11.70;99.90;;;;;;2106399;28;19915;-68
2024/04/04 03:08:43;;;;;;;;;;;11.70;99.90;;;;;;2097619;28;19933;-68
2024/04/04 03:09:43;;;;;;;;;;;11.70;99.90;;;;;;2098557;28;19920;-70
2024/04/04 03:10:44;;;;;;;;;;;11.70;99.90;;;;;;2106412;28;19951;-68
2024/04/04 03:11:44;;;;;;;;;;;11.70;99.90;;;;;;2107464;28;19958;-68
2024/04/04 03:12:49;;;;;;;;;;;11.70;99.90;;;;;;2107837;28;20347;-68
2024/04/04 03:13:50;;;;;;;;;;;11.70;99.90;;;;;;2098640;28;19912;-68
2024/04/04 03:14:50;;;;;;;;;;;11.70;99.90;;;;;;2108906;28;20118;-68
2024/04/04 03:15:58;;;;;;;;;;;11.70;99.90;;;;;;2101883;28;20016;-68
2024/04/04 03:16:58;;;;;;;;;;;11.70;99.90;;;;;;2090262;28;19940;-68
2024/04/04 03:17:59;;;;;;;;;;;11.70;99.90;;;;;;2105799;28;19912;-68
2024/04/04 03:18:59;;;;;;;;;;;11.70;99.90;;;;;;2099094;28;20390;-68
2024/04/04 03:19:59;;;;;;;;;;;11.80;99.90;;;;;;2107237;28;19916;-68
2024/04/04 03:21:00;;;;;;;;;;;11.70;99.90;;;;;;2100961;28;19927;-68
2024/04/04 03:22:00;;;;;;;;;;;11.70;99.90;;;;;;2104347;28;19929;-68
2024/04/04 03:23:01;;;;;;;;;;;11.70;99.90;;;;;;2091810;28;19952;-68
2024/04/04 03:24:01;;;;;;;;;;;11.70;99.90;;;;;;2102856;28;19974;-67
2024/04/04 03:25:02;;;;;;;;;;;11.70;99.90;;;;;;2099475;28;20398;-67
2024/04/04 03:26:03;;;;;;;;;;;11.70;99.90;;;;;;2098330;28;19912;-68
2024/04/04 03:27:03;;;;;;;;;;;11.70;99.90;;;;;;2096914;28;20366;-67
2024/04/04 03:28:04;;;;;;;;;;;11.70;99.90;;;;;;2097952;28;20015;-67
2024/04/04 03:29:04;;;;;;;;;;;11.70;99.90;;;;;;2091783;28;19909;-68
2024/04/04 03:30:05;;;;;;;;;;;11.70;99.90;;;;;;2103746;28;19966;-67
2024/04/04 03:31:07;;;;;;;;;;;11.70;99.90;;;;;;2098813;28;19920;-69
2024/04/04 03:32:08;;;;;;;;;;;11.70;99.90;;;;;;2106006;28;19916;-67
2024/04/04 03:33:08;;;;;;;;;;;11.60;99.90;;;;;;2101020;27;19913;-68
2024/04/04 03:34:09;;;;;;;;;;;11.60;99.90;;;;;;2109402;27;19970;-67
2024/04/04 03:35:09;;;;;;;;;;;11.60;99.90;;;;;;2095956;28;19980;-67
2024/04/04 03:36:10;;;;;;;;;;;11.60;99.90;;;;;;2106077;28;20322;-68
2024/04/04 03:37:10;;;;;;;;;;;11.50;99.90;;;;;;2100138;28;20504;-67
2024/04/04 03:38:11;;;;;;;;;;;11.50;99.90;;;;;;2103558;28;19947;-68
2024/04/04 03:39:11;;;;;;;;;;;11.50;99.90;;;;;;2106220;28;19915;-68
2024/04/04 03:40:11;;;;;;;;;;;11.50;99.90;;;;;;2101061;28;19916;-67
2024/04/04 03:41:12;;;;;;;;;;;11.50;99.90;;;;;;2099746;28;20169;-69
2024/04/04 03:42:12;;;;;;;;;;;11.50;99.90;;;;;;2100903;28;19995;-67
2024/04/04 03:43:13;;;;;;;;;;;11.50;99.90;;;;;;2096176;28;19960;-67
2024/04/04 03:44:13;;;;;;;;;;;11.50;99.90;;;;;;2097895;28;19970;-67
2024/04/04 03:45:14;;;;;;;;;;;11.60;99.90;;;;;;2096229;28;20400;-68
2024/04/04 03:46:15;;;;;;;;;;;11.60;99.90;;;;;;2100682;28;19916;-68
2024/04/04 03:47:15;;;;;;;;;;;11.60;99.90;;;;;;2093671;28;20303;-67
2024/04/04 03:48:19;;;;;;;;;;;11.60;99.90;;;;;;2096316;28;19923;-67
2024/04/04 03:49:20;;;;;;;;;;;11.60;99.90;;;;;;2099486;28;19927;-67
2024/04/04 03:50:23;;;;;;;;;;;11.60;99.90;;;;;;2104302;28;19916;-68
2024/04/04 03:51:26;;;;;;;;;;;11.60;99.90;;;;;;2093565;28;19971;-67
2024/04/04 03:52:27;;;;;;;;;;;11.60;99.90;;;;;;2101380;28;20318;-67
2024/04/04 03:53:27;;;;;;;;;;;11.70;99.90;;;;;;2104254;28;19961;-68
2024/04/04 03:54:28;;;;;;;;;;;11.70;99.90;;;;;;2099933;28;20301;-68
2024/04/04 03:55:28;;;;;;;;;;;11.70;99.90;;;;;;2095265;28;19930;-67
2024/04/04 03:56:29;;;;;;;;;;;11.70;99.90;;;;;;2093683;28;19912;-68
2024/04/04 03:57:29;;;;;;;;;;;11.70;99.90;;;;;;2101107;28;20012;-67
2024/04/04 03:58:30;;;;;;;;;;;11.70;99.90;;;;;;2100084;28;19970;-68
2024/04/04 03:59:30;;;;;;;;;;;11.70;99.90;;;;;;2094503;28;20427;-67
2024/04/04 04:00:31;;;;;;;;;;;11.70;99.90;;;;;;2101017;28;19921;-67
2024/04/04 04:01:32;;;;;;;;;;;11.80;99.90;;;;;;2100089;28;19915;-68
2024/04/04 04:02:32;;;;;;;;;;;11.80;99.90;;;;;;2093981;28;19920;-67
2024/04/04 04:03:36;;;;;;;;;;;11.80;99.90;;;;;;2093309;28;19943;-67
2024/04/04 04:04:36;;;;;;;;;;;11.80;99.90;;;;;;2101377;28;19923;-66
2024/04/04 04:05:37;;;;;;;;;;;11.70;99.90;;;;;;2093089;28;20154;-66
2024/04/04 04:06:37;;;;;;;;;;;11.70;99.90;;;;;;2100633;28;19916;-68
2024/04/04 04:07:38;;;;;;;;;;;11.70;99.90;;;;;;2101063;28;19957;-67
2024/04/04 04:08:38;;;;;;;;;;;11.70;99.90;;;;;;2093774;28;19983;-68
2024/04/04 04:09:39;;;;;;;;;;;11.70;99.90;;;;;;2099919;28;19924;-68
2024/04/04 04:10:39;;;;;;;;;;;11.80;99.90;;;;;;2102942;28;20477;-68
2024/04/04 04:11:40;;;;;;;;;;;11.70;99.90;;;;;;2100138;28;20415;-68
2024/04/04 04:12:40;;;;;;;;;;;11.80;99.90;;;;;;2101460;28;19917;-68
2024/04/04 04:13:45;;;;;;;;;;;11.80;99.90;;;;;;2101175;28;20291;-67
2024/04/04 04:14:45;;;;;;;;;;;11.80;99.90;;;;;;2100558;28;19923;-67
2024/04/04 04:15:55;;;;;;;;;;;11.80;99.90;;;;;;2094018;28;20379;-68
2024/04/04 04:16:56;;;;;;;;;;;11.80;99.90;;;;;;2102664;28;20413;-67
2024/04/04 04:17:56;;;;;;;;;;;11.80;99.90;;;;;;2096101;28;19919;-68
2024/04/04 04:18:57;;;;;;;;;;;11.80;99.90;;;;;;2095145;28;19966;-67
2024/04/04 04:19:58;;;;;;;;;;;11.80;99.90;;;;;;2100701;28;20037;-67
2024/04/04 04:21:17;;;;;;;;;;;11.80;99.90;;;;;;2103406;28;21011;-67
2024/04/04 04:22:18;;;;;;;;;;;11.80;99.90;;;;;;2098973;28;20382;-67
2024/04/04 04:23:18;;;;;;;;;;;11.80;99.90;;;;;;2098731;28;19913;-67
2024/04/04 04:24:19;;;;;;;;;;;11.80;99.90;;;;;;2101199;28;20362;-68
2024/04/04 04:25:19;;;;;;;;;;;11.80;99.90;;;;;;2094623;28;19966;-68
2024/04/04 04:26:20;;;;;;;;;;;11.80;99.90;;;;;;2099187;28;19920;-68
2024/04/04 04:27:20;;;;;;;;;;;11.80;99.90;;;;;;2100778;28;20041;-68
2024/04/04 04:28:21;;;;;;;;;;;11.80;99.90;;;;;;2095430;28;19936;-68
2024/04/04 04:29:21;;;;;;;;;;;11.80;99.90;;;;;;2100320;28;20346;-68
2024/04/04 04:30:22;;;;;;;;;;;11.80;99.90;;;;;;2099412;28;19924;-66
2024/04/04 04:31:24;;;;;;;;;;;11.80;99.90;;;;;;2099696;28;20377;-67
2024/04/04 04:32:25;;;;;;;;;;;11.80;99.90;;;;;;2097283;28;19924;-66
2024/04/04 04:33:25;;;;;;;;;;;11.80;99.90;;;;;;2097820;28;20021;-67
2024/04/04 04:34:26;;;;;;;;;;;11.80;99.90;;;;;;2100876;28;20319;-67
2024/04/04 04:35:26;;;;;;;;;;;11.80;99.90;;;;;;2095985;28;20315;-67
2024/04/04 04:36:30;;;;;;;;;;;11.80;99.90;;;;;;2097965;28;20398;-67
2024/04/04 04:37:30;;;;;;;;;;;11.80;99.90;;;;;;2100973;28;20172;-68
2024/04/04 04:38:31;;;;;;;;;;;11.80;99.90;;;;;;2096745;28;20348;-67
2024/04/04 04:39:31;;;;;;;;;;;11.80;99.90;;;;;;2096080;28;19967;-67
2024/04/04 04:40:31;;;;;;;;;;;11.90;99.90;;;;;;2099827;28;19972;-67
2024/04/04 04:41:32;;;;;;;;;;;11.90;99.90;;;;;;2097132;28;19923;-67
2024/04/04 04:42:32;;;;;;;;;;;11.90;99.90;;;;;;2096294;28;19912;-68
2024/04/04 04:43:33;;;;;;;;;;;11.80;99.90;;;;;;2100578;28;19911;-67
2024/04/04 04:44:35;;;;;;;;;;;11.90;99.90;;;;;;2097000;28;19920;-67
2024/04/04 04:45:35;;;;;;;;;;;11.90;99.90;;;;;;2102214;28;19916;-68
2024/04/04 04:46:36;;;;;;;;;;;11.90;99.90;;;;;;2102021;28;20031;-67
2024/04/04 04:47:36;;;;;;;;;;;11.90;99.90;;;;;;2100815;28;19919;-67
2024/04/04 04:48:37;;;;;;;;;;;11.90;99.90;;;;;;2099757;28;20295;-67
2024/04/04 04:49:37;;;;;;;;;;;11.90;99.90;;;;;;2096733;28;19920;-68
2024/04/04 04:50:37;;;;;;;;;;;11.90;99.90;;;;;;2099651;28;19912;-68
2024/04/04 04:51:38;;;;;;;;;;;11.90;99.90;;;;;;2100207;28;19961;-68
2024/04/04 04:52:38;;;;;;;;;;;11.90;99.90;;;;;;2096782;28;19927;-67
2024/04/04 04:53:39;;;;;;;;;;;11.90;99.90;;;;;;2095600;28;23172;-66
2024/04/04 04:54:40;;;;;;;;;;;11.90;99.90;;;;;;2100335;28;20397;-66
2024/04/04 04:55:40;;;;;;;;;;;11.80;99.90;;;;;;2098229;28;20023;-68
2024/04/04 04:56:41;;;;;;;;;;;11.80;99.90;;;;;;2095409;28;19959;-67
2024/04/04 04:57:41;;;;;;;;;;;11.80;99.90;;;;;;2093916;28;20386;-68
2024/04/04 04:58:42;;;;;;;;;;;11.80;99.90;;;;;;2093703;28;19917;-68
2024/04/04 04:59:43;;;;;;;;;;;11.70;99.90;;;;;;2100816;28;19921;-68
2024/04/04 05:00:44;;;;;;;;;;;11.80;99.90;;;;;;2090538;28;20000;-68
2024/04/04 05:01:44;;;;;;;;;;;11.70;99.90;;;;;;2104202;28;20274;-68
2024/04/04 05:02:47;;;;;;;;;;;11.70;99.90;;;;;;2107302;28;19976;-67
2024/04/04 05:03:47;;;;;;;;;;;11.70;99.90;;;;;;2100823;28;19916;-67
2024/04/04 05:04:48;;;;;;;;;;;11.80;99.90;;;;;;2104684;28;20425;-68
2024/04/04 05:05:50;;;;;;;;;;;11.80;99.90;;;;;;2097517;28;20007;-68
2024/04/04 05:06:52;;;;;;;;;;;11.80;99.90;;;;;;2100533;27;19994;-68
2024/04/04 05:07:52;;;;;;;;;;;11.80;99.90;;;;;;2099795;28;19916;-68
2024/04/04 05:08:52;;;;;;;;;;;11.80;99.90;;;;;;2099349;28;19924;-67
2024/04/04 05:09:53;;;;;;;;;;;11.80;99.90;;;;;;2094737;28;19927;-67
2024/04/04 05:10:53;;;;;;;;;;;11.80;99.90;;;;;;2097134;28;19924;-67
2024/04/04 05:11:54;;;;;;;;;;;11.80;99.90;;;;;;2101734;28;20370;-68
2024/04/04 05:12:55;;;;;;;;;;;11.80;99.90;;;;;;2105241;28;19947;-68
2024/04/04 05:13:55;;;;;;;;;;;11.80;99.90;;;;;;2102297;28;20284;-67
2024/04/04 05:14:55;;;;;;;;;;;11.80;99.90;;;;;;2102600;28;20261;-67
2024/04/04 05:15:56;;;;;;;;;;;11.80;99.90;;;;;;2096589;28;19916;-68
2024/04/04 05:16:56;;;;;;;;;;;11.80;99.90;;;;;;2100248;28;19916;-68
2024/04/04 05:17:57;;;;;;;;;;;11.90;99.90;;;;;;2099505;28;19924;-67
2024/04/04 05:18:58;;;;;;;;;;;11.80;99.90;;;;;;2103240;28;19970;-67
2024/04/04 05:19:59;;;;;;;;;;;11.80;99.90;;;;;;2092333;28;19920;-67
2024/04/04 05:21:01;;;;;;;;;;;11.80;99.90;;;;;;2099090;28;19944;-67
2024/04/04 05:22:02;;;;;;;;;;;11.80;99.90;;;;;;2102569;28;19917;-67
2024/04/04 05:23:03;;;;;;;;;;;11.80;99.90;;;;;;2103572;28;19912;-67
2024/04/04 05:24:03;;;;;;;;;;;11.80;99.90;;;;;;2104461;28;19918;-67
2024/04/04 05:25:04;;;;;;;;;;;11.80;99.90;;;;;;2106933;28;19963;-67
2024/04/04 05:26:04;;;;;;;;;;;11.80;99.90;;;;;;2105520;28;19915;-67
2024/04/04 05:27:05;;;;;;;;;;;11.80;99.90;;;;;;2099946;28;19923;-68
2024/04/04 05:28:08;;;;;;;;;;;11.80;99.90;;;;;;2093757;28;19917;-68
2024/04/04 05:29:12;;;;;;;;;;;11.80;99.90;;;;;;2095384;28;20007;-68
2024/04/04 05:30:15;;;;;;;;;;;11.80;99.90;;;;;;2091790;28;19976;-67
2024/04/04 05:31:16;;;;;;;;;;;11.90;99.90;;;;;;2090171;28;19954;-67
2024/04/04 05:32:17;;;;;;;;;;;11.90;99.90;;;;;;2091731;28;20306;-68
2024/04/04 05:33:17;;;;;;;;;;;11.90;99.90;;;;;;2103459;28;19945;-67
2024/04/04 05:34:18;;;;;;;;;;;11.90;99.90;;;;;;2096178;28;19917;-67
2024/04/04 05:35:18;;;;;;;;;;;11.80;99.90;;;;;;2089037;28;19920;-67
2024/04/04 05:36:19;;;;;;;;;;;11.80;99.90;;;;;;2093966;28;19924;-67
2024/04/04 05:37:20;;;;;;;;;;;11.70;99.90;;;;;;2100475;28;19920;-67
2024/04/04 05:38:21;;;;;;;;;;;11.70;99.90;;;;;;2097938;28;20541;-68
2024/04/04 05:39:21;;;;;;;;;;;11.60;99.90;;;;;;2095828;28;20265;-67
2024/04/04 05:40:25;;;;;;;;;;;11.60;99.90;;;;;;2100961;28;19916;-67
2024/04/04 05:41:25;;;;;;;;;;;11.60;99.90;;;;;;2099916;28;19915;-69
2024/04/04 05:42:29;;;;;;;;;;;11.60;99.90;;;;;;2093438;28;19916;-67
2024/04/04 05:43:29;;;;;;;;;;;11.50;99.90;;;;;;2101533;28;20149;-67
2024/04/04 05:44:29;;;;;;;;;;;11.50;99.90;;;;;;2100710;28;19935;-68
2024/04/04 05:45:30;;;;;;;;;;;11.60;99.90;;;;;;2099279;28;19946;-68
2024/04/04 05:46:30;;;;;;;;;;;11.60;99.90;;;;;;2093760;28;19916;-68
2024/04/04 05:47:31;;;;;;;;;;;11.60;99.90;;;;;;2107610;28;20483;-68
2024/04/04 05:48:31;;;;;;;;;;;11.70;99.90;;;;;;2103874;28;19957;-67
2024/04/04 05:49:32;;;;;;;;;;;11.70;99.90;;;;;;2093252;28;20019;-68
2024/04/04 05:50:34;;;;;;;;;;;11.70;99.90;;;;;;2100158;28;19960;-67
2024/04/04 05:51:35;;;;;;;;;;;11.70;99.90;;;;;;2099949;28;19912;-68
2024/04/04 05:52:35;;;;;;;;;;;11.70;99.90;;;;;;2092586;28;20362;-68
2024/04/04 05:53:36;;;;;;;;;;;11.70;99.90;;;;;;2100320;28;20002;-67
2024/04/04 05:54:38;;;;;;;;;;;11.70;99.90;;;;;;2099478;28;19916;-69